sensor_id;sensor_type;location;lat;lon;timestamp;P1;durP1;ratioP1;P2;durP2;ratioP2
43998;SDS011;51319;52.162;5.302;2024-02-15T00:02:24;32.70;;;9.63;;
43998;SDS011;51319;52.162;5.302;2024-02-15T00:04:51;30.35;;;10.05;;
43998;SDS011;51319;52.162;5.302;2024-02-15T00:07:18;26.60;;;10.80;;
43998;SDS011;51319;52.162;5.302;2024-02-15T00:09:48;31.70;;;10.60;;
43998;SDS011;51319;52.162;5.302;2024-02-15T00:12:16;29.75;;;10.80;;
43998;SDS011;51319;52.162;5.302;2024-02-15T00:14:43;34.78;;;11.05;;
43998;SDS011;51319;52.162;5.302;2024-02-15T00:17:10;27.98;;;11.23;;
43998;SDS011;51319;52.162;5.302;2024-02-15T00:19:38;32.30;;;10.55;;
43998;SDS011;51319;52.162;5.302;2024-02-15T00:22:08;28.80;;;10.50;;
43998;SDS011;51319;52.162;5.302;2024-02-15T00:24:36;28.65;;;12.45;;
43998;SDS011;51319;52.162;5.302;2024-02-15T00:27:04;24.88;;;10.60;;
43998;SDS011;51319;52.162;5.302;2024-02-15T00:29:32;26.20;;;10.90;;
43998;SDS011;51319;52.162;5.302;2024-02-15T00:32:00;31.08;;;10.95;;
43998;SDS011;51319;52.162;5.302;2024-02-15T00:34:31;28.65;;;11.13;;
43998;SDS011;51319;52.162;5.302;2024-02-15T00:36:59;29.33;;;12.65;;
43998;SDS011;51319;52.162;5.302;2024-02-15T00:39:26;23.95;;;10.55;;
43998;SDS011;51319;52.162;5.302;2024-02-15T00:41:53;26.75;;;10.88;;
43998;SDS011;51319;52.162;5.302;2024-02-15T00:44:22;44.13;;;11.60;;
43998;SDS011;51319;52.162;5.302;2024-02-15T00:46:49;26.58;;;11.13;;
43998;SDS011;51319;52.162;5.302;2024-02-15T00:49:16;37.15;;;10.50;;
43998;SDS011;51319;52.162;5.302;2024-02-15T00:51:47;28.80;;;11.25;;
43998;SDS011;51319;52.162;5.302;2024-02-15T00:54:15;28.67;;;11.07;;
43998;SDS011;51319;52.162;5.302;2024-02-15T00:56:42;29.05;;;9.98;;
43998;SDS011;51319;52.162;5.302;2024-02-15T00:59:10;23.08;;;10.43;;
43998;SDS011;51319;52.162;5.302;2024-02-15T01:01:37;30.23;;;11.18;;
43998;SDS011;51319;52.162;5.302;2024-02-15T01:04:04;28.70;;;10.05;;
43998;SDS011;51319;52.162;5.302;2024-02-15T01:06:31;29.75;;;10.88;;
43998;SDS011;51319;52.162;5.302;2024-02-15T01:09:00;28.23;;;11.23;;
43998;SDS011;51319;52.162;5.302;2024-02-15T01:11:31;28.42;;;11.38;;
43998;SDS011;51319;52.162;5.302;2024-02-15T01:14:04;25.65;;;11.45;;
43998;SDS011;51319;52.162;5.302;2024-02-15T01:16:31;27.60;;;10.93;;
43998;SDS011;51319;52.162;5.302;2024-02-15T01:18:58;31.70;;;11.52;;
43998;SDS011;51319;52.162;5.302;2024-02-15T01:21:25;26.80;;;12.00;;
43998;SDS011;51319;52.162;5.302;2024-02-15T01:23:52;32.05;;;11.82;;
43998;SDS011;51319;52.162;5.302;2024-02-15T01:26:21;27.27;;;10.73;;
43998;SDS011;51319;52.162;5.302;2024-02-15T01:28:47;30.38;;;11.45;;
43998;SDS011;51319;52.162;5.302;2024-02-15T01:31:14;31.95;;;12.57;;
43998;SDS011;51319;52.162;5.302;2024-02-15T01:33:43;28.08;;;11.88;;
43998;SDS011;51319;52.162;5.302;2024-02-15T01:36:15;29.15;;;12.55;;
43998;SDS011;51319;52.162;5.302;2024-02-15T01:38:42;32.67;;;13.37;;
43998;SDS011;51319;52.162;5.302;2024-02-15T01:41:09;32.13;;;14.13;;
43998;SDS011;51319;52.162;5.302;2024-02-15T01:43:37;30.17;;;15.80;;
43998;SDS011;51319;52.162;5.302;2024-02-15T01:46:07;33.80;;;16.10;;
43998;SDS011;51319;52.162;5.302;2024-02-15T01:51:03;40.88;;;17.98;;
43998;SDS011;51319;52.162;5.302;2024-02-15T01:53:44;39.88;;;17.85;;
43998;SDS011;51319;52.162;5.302;2024-02-15T01:56:12;39.00;;;18.52;;
43998;SDS011;51319;52.162;5.302;2024-02-15T01:58:41;47.75;;;20.67;;
43998;SDS011;51319;52.162;5.302;2024-02-15T02:01:09;39.33;;;20.15;;
43998;SDS011;51319;52.162;5.302;2024-02-15T02:03:38;47.25;;;21.38;;
43998;SDS011;51319;52.162;5.302;2024-02-15T02:06:06;48.17;;;21.13;;
43998;SDS011;51319;52.162;5.302;2024-02-15T02:08:34;42.80;;;22.13;;
43998;SDS011;51319;52.162;5.302;2024-02-15T02:11:01;49.05;;;23.45;;
43998;SDS011;51319;52.162;5.302;2024-02-15T02:13:28;52.05;;;24.27;;
43998;SDS011;51319;52.162;5.302;2024-02-15T02:15:56;46.65;;;24.50;;
43998;SDS011;51319;52.162;5.302;2024-02-15T02:18:24;51.33;;;24.98;;
43998;SDS011;51319;52.162;5.302;2024-02-15T02:20:51;49.00;;;25.35;;
43998;SDS011;51319;52.162;5.302;2024-02-15T02:23:20;52.88;;;26.35;;
43998;SDS011;51319;52.162;5.302;2024-02-15T02:25:52;52.05;;;24.13;;
43998;SDS011;51319;52.162;5.302;2024-02-15T02:28:22;53.67;;;24.70;;
43998;SDS011;51319;52.162;5.302;2024-02-15T02:30:49;54.15;;;25.23;;
43998;SDS011;51319;52.162;5.302;2024-02-15T02:33:17;62.80;;;24.58;;
43998;SDS011;51319;52.162;5.302;2024-02-15T02:35:50;53.85;;;23.63;;
43998;SDS011;51319;52.162;5.302;2024-02-15T02:38:17;52.28;;;23.08;;
43998;SDS011;51319;52.162;5.302;2024-02-15T02:40:45;46.88;;;22.48;;
43998;SDS011;51319;52.162;5.302;2024-02-15T02:43:12;50.47;;;22.38;;
43998;SDS011;51319;52.162;5.302;2024-02-15T02:45:39;48.85;;;21.88;;
43998;SDS011;51319;52.162;5.302;2024-02-15T02:48:06;51.13;;;21.38;;
43998;SDS011;51319;52.162;5.302;2024-02-15T02:50:33;52.67;;;23.02;;
43998;SDS011;51319;52.162;5.302;2024-02-15T02:53:01;46.13;;;22.42;;
43998;SDS011;51319;52.162;5.302;2024-02-15T02:55:28;47.08;;;20.27;;
43998;SDS011;51319;52.162;5.302;2024-02-15T02:57:55;44.13;;;21.27;;
43998;SDS011;51319;52.162;5.302;2024-02-15T03:00:23;50.67;;;20.85;;
43998;SDS011;51319;52.162;5.302;2024-02-15T03:02:50;43.90;;;19.35;;
43998;SDS011;51319;52.162;5.302;2024-02-15T03:05:17;45.50;;;20.50;;
43998;SDS011;51319;52.162;5.302;2024-02-15T03:07:48;39.72;;;18.95;;
43998;SDS011;51319;52.162;5.302;2024-02-15T03:10:15;47.22;;;19.55;;
43998;SDS011;51319;52.162;5.302;2024-02-15T03:12:42;39.30;;;17.98;;
43998;SDS011;51319;52.162;5.302;2024-02-15T03:15:14;51.08;;;18.25;;
43998;SDS011;51319;52.162;5.302;2024-02-15T03:17:46;41.15;;;18.50;;
43998;SDS011;51319;52.162;5.302;2024-02-15T03:20:14;42.30;;;15.70;;
43998;SDS011;51319;52.162;5.302;2024-02-15T03:22:56;40.83;;;17.38;;
43998;SDS011;51319;52.162;5.302;2024-02-15T03:25:24;43.92;;;17.27;;
43998;SDS011;51319;52.162;5.302;2024-02-15T03:27:53;44.47;;;16.80;;
43998;SDS011;51319;52.162;5.302;2024-02-15T03:30:24;39.47;;;16.40;;
43998;SDS011;51319;52.162;5.302;2024-02-15T03:32:53;37.25;;;16.13;;
43998;SDS011;51319;52.162;5.302;2024-02-15T03:35:22;33.88;;;16.77;;
43998;SDS011;51319;52.162;5.302;2024-02-15T03:37:51;42.83;;;15.88;;
43998;SDS011;51319;52.162;5.302;2024-02-15T03:40:19;39.15;;;16.10;;
43998;SDS011;51319;52.162;5.302;2024-02-15T03:42:47;35.25;;;14.57;;
43998;SDS011;51319;52.162;5.302;2024-02-15T03:45:17;47.25;;;14.95;;
43998;SDS011;51319;52.162;5.302;2024-02-15T03:47:44;33.97;;;15.63;;
43998;SDS011;51319;52.162;5.302;2024-02-15T03:50:13;38.97;;;15.55;;
43998;SDS011;51319;52.162;5.302;2024-02-15T03:52:41;36.25;;;15.30;;
43998;SDS011;51319;52.162;5.302;2024-02-15T03:55:10;43.92;;;14.75;;
43998;SDS011;51319;52.162;5.302;2024-02-15T03:57:40;37.85;;;15.23;;
43998;SDS011;51319;52.162;5.302;2024-02-15T04:00:10;42.95;;;15.15;;
43998;SDS011;51319;52.162;5.302;2024-02-15T04:02:38;38.08;;;14.75;;
43998;SDS011;51319;52.162;5.302;2024-02-15T04:05:09;34.97;;;14.45;;
43998;SDS011;51319;52.162;5.302;2024-02-15T04:07:39;43.28;;;14.70;;
43998;SDS011;51319;52.162;5.302;2024-02-15T04:10:06;33.15;;;13.93;;
43998;SDS011;51319;52.162;5.302;2024-02-15T04:12:35;36.22;;;14.25;;
43998;SDS011;51319;52.162;5.302;2024-02-15T04:15:03;38.53;;;14.98;;
43998;SDS011;51319;52.162;5.302;2024-02-15T04:17:39;43.30;;;13.77;;
43998;SDS011;51319;52.162;5.302;2024-02-15T04:20:08;36.38;;;14.30;;
43998;SDS011;51319;52.162;5.302;2024-02-15T04:22:36;39.15;;;14.50;;
43998;SDS011;51319;52.162;5.302;2024-02-15T04:25:07;40.10;;;14.60;;
43998;SDS011;51319;52.162;5.302;2024-02-15T04:27:38;40.28;;;14.07;;
43998;SDS011;51319;52.162;5.302;2024-02-15T04:30:06;50.90;;;15.73;;
43998;SDS011;51319;52.162;5.302;2024-02-15T04:32:37;44.28;;;15.07;;
43998;SDS011;51319;52.162;5.302;2024-02-15T04:35:04;39.05;;;15.20;;
43998;SDS011;51319;52.162;5.302;2024-02-15T04:37:35;54.50;;;16.35;;
43998;SDS011;51319;52.162;5.302;2024-02-15T04:40:04;40.55;;;15.13;;
43998;SDS011;51319;52.162;5.302;2024-02-15T04:42:37;45.97;;;15.18;;
43998;SDS011;51319;52.162;5.302;2024-02-15T04:45:07;41.22;;;15.60;;
43998;SDS011;51319;52.162;5.302;2024-02-15T04:47:37;44.25;;;15.70;;
43998;SDS011;51319;52.162;5.302;2024-02-15T04:50:05;37.63;;;15.50;;
43998;SDS011;51319;52.162;5.302;2024-02-15T04:52:33;47.90;;;16.60;;
43998;SDS011;51319;52.162;5.302;2024-02-15T04:55:01;45.20;;;16.77;;
43998;SDS011;51319;52.162;5.302;2024-02-15T04:57:32;41.55;;;16.17;;
43998;SDS011;51319;52.162;5.302;2024-02-15T05:00:01;43.60;;;16.50;;
43998;SDS011;51319;52.162;5.302;2024-02-15T05:02:31;56.15;;;17.65;;
43998;SDS011;51319;52.162;5.302;2024-02-15T05:04:58;48.50;;;17.17;;
43998;SDS011;51319;52.162;5.302;2024-02-15T05:07:25;49.10;;;18.02;;
43998;SDS011;51319;52.162;5.302;2024-02-15T05:09:52;43.67;;;16.75;;
43998;SDS011;51319;52.162;5.302;2024-02-15T05:12:23;46.97;;;17.98;;
43998;SDS011;51319;52.162;5.302;2024-02-15T05:14:54;51.20;;;19.65;;
43998;SDS011;51319;52.162;5.302;2024-02-15T05:17:21;54.75;;;19.02;;
43998;SDS011;51319;52.162;5.302;2024-02-15T05:19:49;42.22;;;17.88;;
43998;SDS011;51319;52.162;5.302;2024-02-15T05:22:16;53.75;;;19.55;;
43998;SDS011;51319;52.162;5.302;2024-02-15T05:24:45;45.13;;;18.40;;
43998;SDS011;51319;52.162;5.302;2024-02-15T05:27:12;40.92;;;18.90;;
43998;SDS011;51319;52.162;5.302;2024-02-15T05:29:39;59.58;;;20.17;;
43998;SDS011;51319;52.162;5.302;2024-02-15T05:32:09;48.25;;;20.08;;
43998;SDS011;51319;52.162;5.302;2024-02-15T05:34:37;46.60;;;19.58;;
43998;SDS011;51319;52.162;5.302;2024-02-15T05:37:07;52.15;;;20.02;;
43998;SDS011;51319;52.162;5.302;2024-02-15T05:39:34;27.65;;;14.40;;
43998;SDS011;51319;52.162;5.302;2024-02-15T05:42:01;49.83;;;21.27;;
43998;SDS011;51319;52.162;5.302;2024-02-15T05:47:04;71.43;;;22.05;;
43998;SDS011;51319;52.162;5.302;2024-02-15T05:49:30;50.22;;;21.98;;
43998;SDS011;51319;52.162;5.302;2024-02-15T05:51:58;44.00;;;20.92;;
43998;SDS011;51319;52.162;5.302;2024-02-15T05:54:25;48.28;;;21.48;;
43998;SDS011;51319;52.162;5.302;2024-02-15T05:56:52;54.00;;;22.20;;
43998;SDS011;51319;52.162;5.302;2024-02-15T05:59:20;41.88;;;21.45;;
43998;SDS011;51319;52.162;5.302;2024-02-15T06:01:49;46.83;;;22.45;;
43998;SDS011;51319;52.162;5.302;2024-02-15T06:04:16;50.25;;;21.40;;
43998;SDS011;51319;52.162;5.302;2024-02-15T06:06:43;45.47;;;22.63;;
43998;SDS011;51319;52.162;5.302;2024-02-15T06:09:15;42.53;;;20.98;;
43998;SDS011;51319;52.162;5.302;2024-02-15T06:11:42;45.72;;;20.45;;
43998;SDS011;51319;52.162;5.302;2024-02-15T06:14:12;35.17;;;16.25;;
43998;SDS011;51319;52.162;5.302;2024-02-15T06:16:45;42.58;;;19.33;;
43998;SDS011;51319;52.162;5.302;2024-02-15T06:19:11;42.85;;;20.20;;
43998;SDS011;51319;52.162;5.302;2024-02-15T06:21:41;47.40;;;20.08;;
43998;SDS011;51319;52.162;5.302;2024-02-15T06:24:08;46.65;;;19.63;;
43998;SDS011;51319;52.162;5.302;2024-02-15T06:26:37;41.53;;;18.58;;
43998;SDS011;51319;52.162;5.302;2024-02-15T06:29:07;34.60;;;18.75;;
43998;SDS011;51319;52.162;5.302;2024-02-15T06:31:55;38.60;;;18.40;;
43998;SDS011;51319;52.162;5.302;2024-02-15T06:34:42;50.00;;;20.02;;
43998;SDS011;51319;52.162;5.302;2024-02-15T06:37:37;37.83;;;19.38;;
43998;SDS011;51319;52.162;5.302;2024-02-15T06:40:23;37.40;;;18.30;;
43998;SDS011;51319;52.162;5.302;2024-02-15T06:42:50;40.65;;;20.20;;
43998;SDS011;51319;52.162;5.302;2024-02-15T06:45:17;40.85;;;20.00;;
43998;SDS011;51319;52.162;5.302;2024-02-15T06:47:44;46.70;;;22.75;;
43998;SDS011;51319;52.162;5.302;2024-02-15T06:50:15;41.25;;;20.42;;
43998;SDS011;51319;52.162;5.302;2024-02-15T06:52:43;51.38;;;23.33;;
43998;SDS011;51319;52.162;5.302;2024-02-15T06:55:11;45.53;;;22.00;;
43998;SDS011;51319;52.162;5.302;2024-02-15T06:57:39;43.70;;;22.95;;
43998;SDS011;51319;52.162;5.302;2024-02-15T07:00:09;40.50;;;22.40;;
43998;SDS011;51319;52.162;5.302;2024-02-15T07:02:41;55.13;;;22.95;;
43998;SDS011;51319;52.162;5.302;2024-02-15T07:05:11;47.25;;;22.95;;
43998;SDS011;51319;52.162;5.302;2024-02-15T07:07:38;37.58;;;19.73;;
43998;SDS011;51319;52.162;5.302;2024-02-15T07:10:06;39.22;;;20.85;;
43998;SDS011;51319;52.162;5.302;2024-02-15T07:12:35;35.60;;;20.20;;
43998;SDS011;51319;52.162;5.302;2024-02-15T07:15:04;35.45;;;20.23;;
43998;SDS011;51319;52.162;5.302;2024-02-15T07:17:36;47.20;;;20.83;;
43998;SDS011;51319;52.162;5.302;2024-02-15T07:20:06;45.83;;;22.38;;
43998;SDS011;51319;52.162;5.302;2024-02-15T07:22:36;45.53;;;21.65;;
43998;SDS011;51319;52.162;5.302;2024-02-15T07:25:05;44.88;;;21.95;;
43998;SDS011;51319;52.162;5.302;2024-02-15T07:27:32;37.55;;;20.85;;
43998;SDS011;51319;52.162;5.302;2024-02-15T07:30:01;39.92;;;20.40;;
43998;SDS011;51319;52.162;5.302;2024-02-15T07:32:31;41.15;;;19.88;;
43998;SDS011;51319;52.162;5.302;2024-02-15T07:51:19;31.35;;;15.50;;
43998;SDS011;51319;52.162;5.302;2024-02-15T07:53:47;24.38;;;14.00;;
43998;SDS011;51319;52.162;5.302;2024-02-15T07:56:16;32.30;;;15.65;;
43998;SDS011;51319;52.162;5.302;2024-02-15T07:58:44;25.70;;;13.70;;
43998;SDS011;51319;52.162;5.302;2024-02-15T08:01:32;24.25;;;14.25;;
43998;SDS011;51319;52.162;5.302;2024-02-15T08:03:59;25.05;;;12.93;;
43998;SDS011;51319;52.162;5.302;2024-02-15T08:06:26;23.80;;;12.60;;
43998;SDS011;51319;52.162;5.302;2024-02-15T08:08:55;30.65;;;12.32;;
43998;SDS011;51319;52.162;5.302;2024-02-15T08:11:22;29.52;;;11.98;;
43998;SDS011;51319;52.162;5.302;2024-02-15T08:13:53;22.00;;;10.82;;
43998;SDS011;51319;52.162;5.302;2024-02-15T08:16:21;22.73;;;11.38;;
43998;SDS011;51319;52.162;5.302;2024-02-15T08:18:49;22.58;;;9.85;;
43998;SDS011;51319;52.162;5.302;2024-02-15T08:21:27;16.85;;;9.40;;
43998;SDS011;51319;52.162;5.302;2024-02-15T08:23:56;19.48;;;9.88;;
43998;SDS011;51319;52.162;5.302;2024-02-15T08:26:23;15.55;;;8.13;;
43998;SDS011;51319;52.162;5.302;2024-02-15T08:28:50;25.35;;;9.27;;
43998;SDS011;51319;52.162;5.302;2024-02-15T08:31:20;19.95;;;8.48;;
43998;SDS011;51319;52.162;5.302;2024-02-15T08:33:47;23.73;;;8.25;;
43998;SDS011;51319;52.162;5.302;2024-02-15T08:36:15;20.08;;;7.45;;
43998;SDS011;51319;52.162;5.302;2024-02-15T08:38:42;14.80;;;7.05;;
43998;SDS011;51319;52.162;5.302;2024-02-15T08:41:11;11.40;;;6.85;;
43998;SDS011;51319;52.162;5.302;2024-02-15T08:43:39;9.75;;;5.60;;
43998;SDS011;51319;52.162;5.302;2024-02-15T08:46:07;14.13;;;5.90;;
43998;SDS011;51319;52.162;5.302;2024-02-15T09:04:20;15.65;;;7.93;;
43998;SDS011;51319;52.162;5.302;2024-02-15T09:06:50;15.02;;;7.07;;
43998;SDS011;51319;52.162;5.302;2024-02-15T09:14:21;21.17;;;9.55;;
43998;SDS011;51319;52.162;5.302;2024-02-15T09:16:48;17.35;;;7.70;;
43998;SDS011;51319;52.162;5.302;2024-02-15T09:27:31;24.10;;;9.50;;
43998;SDS011;51319;52.162;5.302;2024-02-15T09:29:58;25.83;;;9.77;;
43998;SDS011;51319;52.162;5.302;2024-02-15T10:04:25;27.98;;;11.07;;
43998;SDS011;51319;52.162;5.302;2024-02-15T10:06:52;30.27;;;8.45;;
43998;SDS011;51319;52.162;5.302;2024-02-15T10:09:23;37.10;;;15.35;;
43998;SDS011;51319;52.162;5.302;2024-02-15T10:11:57;17.50;;;8.80;;
43998;SDS011;51319;52.162;5.302;2024-02-15T10:14:27;22.85;;;9.27;;
43998;SDS011;51319;52.162;5.302;2024-02-15T10:16:55;28.10;;;12.13;;
43998;SDS011;51319;52.162;5.302;2024-02-15T10:30:15;41.92;;;18.52;;
43998;SDS011;51319;52.162;5.302;2024-02-15T10:40:55;37.05;;;23.90;;
43998;SDS011;51319;52.162;5.302;2024-02-15T10:43:34;24.17;;;11.38;;
43998;SDS011;51319;52.162;5.302;2024-02-15T10:46:05;19.90;;;10.80;;
43998;SDS011;51319;52.162;5.302;2024-02-15T11:10:33;34.33;;;12.98;;
43998;SDS011;51319;52.162;5.302;2024-02-15T11:13:03;24.40;;;12.32;;
43998;SDS011;51319;52.162;5.302;2024-02-15T11:15:46;28.77;;;12.40;;
43998;SDS011;51319;52.162;5.302;2024-02-15T11:21:20;23.58;;;11.15;;
43998;SDS011;51319;52.162;5.302;2024-02-15T11:24:26;25.65;;;11.35;;
43998;SDS011;51319;52.162;5.302;2024-02-15T11:27:01;33.78;;;12.77;;
43998;SDS011;51319;52.162;5.302;2024-02-15T11:32:41;25.13;;;11.75;;
43998;SDS011;51319;52.162;5.302;2024-02-15T11:35:23;27.27;;;13.00;;
43998;SDS011;51319;52.162;5.302;2024-02-15T11:37:53;29.70;;;12.75;;
43998;SDS011;51319;52.162;5.302;2024-02-15T11:43:08;30.27;;;13.95;;
43998;SDS011;51319;52.162;5.302;2024-02-15T11:45:37;28.75;;;13.15;;
43998;SDS011;51319;52.162;5.302;2024-02-15T11:59:06;30.13;;;13.38;;
43998;SDS011;51319;52.162;5.302;2024-02-15T12:01:33;23.65;;;12.48;;
43998;SDS011;51319;52.162;5.302;2024-02-15T12:23:20;21.27;;;10.90;;
43998;SDS011;51319;52.162;5.302;2024-02-15T12:25:52;21.58;;;10.75;;
43998;SDS011;51319;52.162;5.302;2024-02-15T12:28:19;16.88;;;9.18;;
43998;SDS011;51319;52.162;5.302;2024-02-15T12:44:20;12.10;;;6.63;;
43998;SDS011;51319;52.162;5.302;2024-02-15T12:46:55;11.35;;;7.25;;
43998;SDS011;51319;52.162;5.302;2024-02-15T13:08:37;5.88;;;3.20;;
43998;SDS011;51319;52.162;5.302;2024-02-15T13:11:07;7.70;;;3.17;;
43998;SDS011;51319;52.162;5.302;2024-02-15T13:13:39;6.15;;;2.78;;
43998;SDS011;51319;52.162;5.302;2024-02-15T13:16:08;8.65;;;3.33;;
43998;SDS011;51319;52.162;5.302;2024-02-15T13:31:59;5.57;;;2.78;;
43998;SDS011;51319;52.162;5.302;2024-02-15T13:34:27;3.95;;;1.85;;
43998;SDS011;51319;52.162;5.302;2024-02-15T13:39:27;4.55;;;2.40;;
43998;SDS011;51319;52.162;5.302;2024-02-15T13:42:00;8.55;;;2.63;;
43998;SDS011;51319;52.162;5.302;2024-02-15T13:44:28;4.45;;;2.13;;
43998;SDS011;51319;52.162;5.302;2024-02-15T13:46:57;8.73;;;3.05;;
43998;SDS011;51319;52.162;5.302;2024-02-15T14:24:42;8.18;;;2.50;;
43998;SDS011;51319;52.162;5.302;2024-02-15T14:27:12;7.97;;;2.33;;
43998;SDS011;51319;52.162;5.302;2024-02-15T14:29:41;6.65;;;2.13;;
43998;SDS011;51319;52.162;5.302;2024-02-15T14:32:31;6.60;;;2.35;;
43998;SDS011;51319;52.162;5.302;2024-02-15T14:35:17;4.47;;;1.65;;
43998;SDS011;51319;52.162;5.302;2024-02-15T14:37:43;11.13;;;2.13;;
43998;SDS011;51319;52.162;5.302;2024-02-15T14:40:11;8.68;;;2.53;;
43998;SDS011;51319;52.162;5.302;2024-02-15T14:42:44;4.45;;;2.05;;
43998;SDS011;51319;52.162;5.302;2024-02-15T14:45:22;9.45;;;2.88;;
43998;SDS011;51319;52.162;5.302;2024-02-15T14:47:49;7.32;;;2.35;;
43998;SDS011;51319;52.162;5.302;2024-02-15T14:50:16;4.85;;;1.75;;
43998;SDS011;51319;52.162;5.302;2024-02-15T14:52:44;9.85;;;3.05;;
43998;SDS011;51319;52.162;5.302;2024-02-15T14:55:11;147.82;;;75.13;;
43998;SDS011;51319;52.162;5.302;2024-02-15T14:57:37;10.65;;;3.05;;
43998;SDS011;51319;52.162;5.302;2024-02-15T15:00:05;9.40;;;2.50;;
43998;SDS011;51319;52.162;5.302;2024-02-15T15:02:44;5.75;;;2.42;;
43998;SDS011;51319;52.162;5.302;2024-02-15T15:05:13;6.72;;;2.55;;
43998;SDS011;51319;52.162;5.302;2024-02-15T15:08:00;7.35;;;2.10;;
43998;SDS011;51319;52.162;5.302;2024-02-15T15:10:46;14.90;;;6.75;;
43998;SDS011;51319;52.162;5.302;2024-02-15T15:21:43;6.13;;;2.15;;
43998;SDS011;51319;52.162;5.302;2024-02-15T15:24:10;7.15;;;2.72;;
43998;SDS011;51319;52.162;5.302;2024-02-15T15:26:37;7.63;;;2.55;;
43998;SDS011;51319;52.162;5.302;2024-02-15T15:29:04;5.60;;;2.20;;
43998;SDS011;51319;52.162;5.302;2024-02-15T15:31:34;7.38;;;2.22;;
43998;SDS011;51319;52.162;5.302;2024-02-15T15:34:23;5.82;;;1.73;;
43998;SDS011;51319;52.162;5.302;2024-02-15T15:36:50;5.70;;;1.95;;
43998;SDS011;51319;52.162;5.302;2024-02-15T15:39:21;8.30;;;2.20;;
43998;SDS011;51319;52.162;5.302;2024-02-15T15:41:51;7.45;;;2.25;;
43998;SDS011;51319;52.162;5.302;2024-02-15T15:44:20;5.65;;;2.15;;
43998;SDS011;51319;52.162;5.302;2024-02-15T15:46:49;7.63;;;2.03;;
43998;SDS011;51319;52.162;5.302;2024-02-15T15:51:47;9.00;;;2.10;;
43998;SDS011;51319;52.162;5.302;2024-02-15T15:54:14;6.30;;;2.03;;
43998;SDS011;51319;52.162;5.302;2024-02-15T15:56:44;10.10;;;3.05;;
43998;SDS011;51319;52.162;5.302;2024-02-15T15:59:11;4.55;;;2.17;;
43998;SDS011;51319;52.162;5.302;2024-02-15T16:01:38;10.50;;;3.13;;
43998;SDS011;51319;52.162;5.302;2024-02-15T16:04:12;7.82;;;2.85;;
43998;SDS011;51319;52.162;5.302;2024-02-15T16:06:39;8.98;;;2.17;;
43998;SDS011;51319;52.162;5.302;2024-02-15T16:09:07;6.82;;;2.30;;
43998;SDS011;51319;52.162;5.302;2024-02-15T16:11:35;6.88;;;1.70;;
43998;SDS011;51319;52.162;5.302;2024-02-15T16:14:02;5.40;;;2.05;;
43998;SDS011;51319;52.162;5.302;2024-02-15T16:16:32;6.60;;;2.10;;
43998;SDS011;51319;52.162;5.302;2024-02-15T16:18:59;4.88;;;2.00;;
43998;SDS011;51319;52.162;5.302;2024-02-15T16:21:26;7.75;;;2.33;;
43998;SDS011;51319;52.162;5.302;2024-02-15T16:23:54;6.10;;;2.28;;
43998;SDS011;51319;52.162;5.302;2024-02-15T16:26:20;10.00;;;2.88;;
43998;SDS011;51319;52.162;5.302;2024-02-15T16:28:48;11.13;;;2.58;;
43998;SDS011;51319;52.162;5.302;2024-02-15T16:31:15;7.82;;;2.60;;
43998;SDS011;51319;52.162;5.302;2024-02-15T16:33:41;9.45;;;2.80;;
43998;SDS011;51319;52.162;5.302;2024-02-15T16:36:09;3.92;;;2.30;;
43998;SDS011;51319;52.162;5.302;2024-02-15T16:38:39;9.05;;;2.40;;
43998;SDS011;51319;52.162;5.302;2024-02-15T16:41:10;6.40;;;2.28;;
43998;SDS011;51319;52.162;5.302;2024-02-15T16:43:37;6.00;;;3.42;;
43998;SDS011;51319;52.162;5.302;2024-02-15T16:46:04;6.90;;;2.33;;
43998;SDS011;51319;52.162;5.302;2024-02-15T16:48:32;8.57;;;3.25;;
43998;SDS011;51319;52.162;5.302;2024-02-15T16:50:59;6.43;;;2.60;;
43998;SDS011;51319;52.162;5.302;2024-02-15T16:53:28;7.28;;;2.80;;
43998;SDS011;51319;52.162;5.302;2024-02-15T16:55:59;12.02;;;3.70;;
43998;SDS011;51319;52.162;5.302;2024-02-15T16:58:29;9.60;;;3.28;;
43998;SDS011;51319;52.162;5.302;2024-02-15T17:00:57;7.57;;;2.95;;
43998;SDS011;51319;52.162;5.302;2024-02-15T17:03:25;5.25;;;2.58;;
43998;SDS011;51319;52.162;5.302;2024-02-15T17:05:52;8.88;;;3.25;;
43998;SDS011;51319;52.162;5.302;2024-02-15T17:08:20;8.48;;;2.85;;
43998;SDS011;51319;52.162;5.302;2024-02-15T17:10:47;6.57;;;2.95;;
43998;SDS011;51319;52.162;5.302;2024-02-15T17:13:13;4.78;;;2.03;;
43998;SDS011;51319;52.162;5.302;2024-02-15T17:15:41;6.78;;;2.50;;
43998;SDS011;51319;52.162;5.302;2024-02-15T17:18:11;6.68;;;3.28;;
43998;SDS011;51319;52.162;5.302;2024-02-15T17:20:42;7.35;;;2.90;;
43998;SDS011;51319;52.162;5.302;2024-02-15T17:23:23;6.45;;;2.80;;
43998;SDS011;51319;52.162;5.302;2024-02-15T17:28:47;8.50;;;2.40;;
43998;SDS011;51319;52.162;5.302;2024-02-15T17:31:16;6.88;;;2.40;;
43998;SDS011;51319;52.162;5.302;2024-02-15T17:33:46;7.85;;;2.53;;
43998;SDS011;51319;52.162;5.302;2024-02-15T17:36:13;6.10;;;2.53;;
43998;SDS011;51319;52.162;5.302;2024-02-15T17:52:18;7.38;;;3.78;;
43998;SDS011;51319;52.162;5.302;2024-02-15T17:54:45;8.20;;;4.28;;
43998;SDS011;51319;52.162;5.302;2024-02-15T17:57:12;10.48;;;4.00;;
43998;SDS011;51319;52.162;5.302;2024-02-15T17:59:39;4.68;;;2.95;;
43998;SDS011;51319;52.162;5.302;2024-02-15T18:02:07;9.93;;;3.38;;
43998;SDS011;51319;52.162;5.302;2024-02-15T18:04:34;11.20;;;3.05;;
43998;SDS011;51319;52.162;5.302;2024-02-15T18:07:05;9.70;;;3.33;;
43998;SDS011;51319;52.162;5.302;2024-02-15T18:09:32;9.77;;;2.83;;
43998;SDS011;51319;52.162;5.302;2024-02-15T18:12:01;12.98;;;3.08;;
43998;SDS011;51319;52.162;5.302;2024-02-15T18:14:30;7.40;;;3.05;;
43998;SDS011;51319;52.162;5.302;2024-02-15T18:17:01;10.88;;;3.20;;
43998;SDS011;51319;52.162;5.302;2024-02-15T18:19:30;7.28;;;2.90;;
43998;SDS011;51319;52.162;5.302;2024-02-15T18:22:03;9.73;;;3.45;;
43998;SDS011;51319;52.162;5.302;2024-02-15T18:24:35;5.78;;;2.88;;
43998;SDS011;51319;52.162;5.302;2024-02-15T18:27:03;6.60;;;3.15;;
43998;SDS011;51319;52.162;5.302;2024-02-15T18:29:30;15.15;;;8.55;;
43998;SDS011;51319;52.162;5.302;2024-02-15T18:31:58;12.75;;;2.75;;
43998;SDS011;51319;52.162;5.302;2024-02-15T18:34:25;8.95;;;2.53;;
43998;SDS011;51319;52.162;5.302;2024-02-15T18:36:54;8.60;;;2.70;;
43998;SDS011;51319;52.162;5.302;2024-02-15T18:42:12;7.78;;;2.80;;
43998;SDS011;51319;52.162;5.302;2024-02-15T18:58:16;4.18;;;2.38;;
43998;SDS011;51319;52.162;5.302;2024-02-15T19:00:47;6.80;;;2.43;;
43998;SDS011;51319;52.162;5.302;2024-02-15T19:03:23;4.30;;;2.15;;
43998;SDS011;51319;52.162;5.302;2024-02-15T19:05:52;6.68;;;2.92;;
43998;SDS011;51319;52.162;5.302;2024-02-15T19:08:19;6.00;;;3.22;;
43998;SDS011;51319;52.162;5.302;2024-02-15T19:16:09;11.90;;;6.30;;
43998;SDS011;51319;52.162;5.302;2024-02-15T19:18:39;22.02;;;10.57;;
43998;SDS011;51319;52.162;5.302;2024-02-15T19:40:08;7.53;;;3.13;;
43998;SDS011;51319;52.162;5.302;2024-02-15T19:50:45;11.32;;;3.25;;
43998;SDS011;51319;52.162;5.302;2024-02-15T19:53:12;6.50;;;2.95;;
43998;SDS011;51319;52.162;5.302;2024-02-15T19:55:40;7.75;;;2.85;;
43998;SDS011;51319;52.162;5.302;2024-02-15T19:58:08;5.68;;;2.88;;
43998;SDS011;51319;52.162;5.302;2024-02-15T20:03:13;9.75;;;3.42;;
43998;SDS011;51319;52.162;5.302;2024-02-15T20:05:40;8.70;;;2.45;;
43998;SDS011;51319;52.162;5.302;2024-02-15T20:08:09;9.57;;;3.05;;
43998;SDS011;51319;52.162;5.302;2024-02-15T20:10:38;7.57;;;2.70;;